createdAt,value
2019-04-25T00:00:01.946Z,50
2019-04-25T00:01:01.122Z,50
2019-04-25T00:02:01.811Z,50
2019-04-25T00:03:01.218Z,49
2019-04-25T00:04:01.992Z,49
2019-04-25T00:05:01.274Z,49
2019-04-25T00:06:02.245Z,49
2019-04-25T00:07:02.203Z,49
2019-04-25T00:08:01.492Z,49
2019-04-25T00:09:01.862Z,49
2019-04-25T00:10:01.575Z,49
2019-04-25T00:11:01.683Z,50
2019-04-25T00:12:02.232Z,48
2019-04-25T00:13:01.638Z,49
2019-04-25T00:14:01.533Z,49
2019-04-25T00:15:01.467Z,49
2019-04-25T00:16:01.822Z,49
2019-04-25T00:17:01.701Z,49
2019-04-25T00:18:02.314Z,48
2019-04-25T00:19:01.828Z,48
2019-04-25T00:20:01.661Z,49
2019-04-25T00:21:01.427Z,50
2019-04-25T00:22:01.959Z,49
2019-04-25T00:23:01.993Z,49
2019-04-25T00:24:02.606Z,49
2019-04-25T00:25:14.236Z,49
2019-04-25T00:26:01.571Z,49
2019-04-25T00:27:02.177Z,49
2019-04-25T00:28:01.856Z,49
2019-04-25T00:29:01.944Z,49
2019-04-25T00:30:01.905Z,49
2019-04-25T00:31:02.095Z,49
2019-04-25T00:32:01.825Z,50
2019-04-25T00:33:02.063Z,50
2019-04-25T00:34:02.209Z,49
2019-04-25T00:35:02.091Z,50
2019-04-25T00:36:03.783Z,50
2019-04-25T00:37:02.472Z,49
2019-04-25T00:38:02.406Z,49
2019-04-25T00:39:02.118Z,49
2019-04-25T00:40:02.041Z,49
2019-04-25T00:41:02.083Z,50
2019-04-25T00:42:02.434Z,50
2019-04-25T00:43:02.116Z,49
2019-04-25T00:44:02.426Z,49
2019-04-25T00:45:02.407Z,50
2019-04-25T00:46:02.192Z,50
2019-04-25T00:47:02.520Z,51
2019-04-25T00:48:04.304Z,51
2019-04-25T00:49:02.561Z,50
2019-04-25T00:50:02.463Z,50
2019-04-25T00:51:02.351Z,50
2019-04-25T00:52:02.359Z,50
2019-04-25T00:53:02.361Z,50
2019-04-25T00:54:02.530Z,51
2019-04-25T00:55:02.384Z,51
2019-04-25T00:56:02.430Z,51
2019-04-25T00:57:02.447Z,51
2019-04-25T00:58:03.341Z,51
2019-04-25T00:59:02.473Z,52
2019-04-25T01:00:02.492Z,52
2019-04-25T01:01:02.518Z,51
2019-04-25T01:02:02.522Z,51
2019-04-25T01:03:03.310Z,52
2019-04-25T01:04:02.533Z,52
2019-04-25T01:05:02.537Z,52
2019-04-25T01:06:03.754Z,52
2019-04-25T01:07:02.551Z,53
2019-04-25T01:08:02.580Z,52
2019-04-25T01:09:02.563Z,51
2019-04-25T01:10:02.684Z,52
2019-04-25T01:11:02.560Z,53
2019-04-25T01:12:04.046Z,52
2019-04-25T01:13:03.071Z,52
2019-04-25T01:14:02.598Z,52
2019-04-25T01:15:02.609Z,52
2019-04-25T01:16:04.048Z,51
2019-04-25T01:17:02.793Z,51
2019-04-25T01:18:02.799Z,52
2019-04-25T01:19:03.514Z,52
2019-04-25T01:20:04.146Z,52
2019-04-25T01:21:04.418Z,52
2019-04-25T01:22:03.818Z,53
2019-04-25T01:23:03.761Z,52
2019-04-25T01:24:04.266Z,52
2019-04-25T01:25:03.760Z,53
2019-04-25T01:26:03.330Z,52
2019-04-25T01:27:03.313Z,52
2019-04-25T01:28:03.295Z,53
2019-04-25T01:29:03.655Z,53
2019-04-25T01:30:03.968Z,53
2019-04-25T01:31:03.834Z,53
2019-04-25T01:32:03.415Z,53
2019-04-25T01:33:03.560Z,53
2019-04-25T01:34:04.327Z,53
2019-04-25T01:35:03.951Z,53
2019-04-25T01:36:03.594Z,53
2019-04-25T01:37:04.145Z,54
2019-04-25T01:38:03.742Z,54
2019-04-25T01:39:04.286Z,54
2019-04-25T01:40:04.101Z,54
2019-04-25T01:41:03.792Z,54
2019-04-25T01:42:05.261Z,54
2019-04-25T01:43:03.833Z,54
2019-04-25T01:44:04.499Z,55
2019-04-25T01:45:04.093Z,55
2019-04-25T01:46:04.001Z,55
2019-04-25T01:47:04.258Z,56
2019-04-25T01:48:04.141Z,56
2019-04-25T01:49:04.338Z,57
2019-04-25T01:50:04.229Z,57
2019-04-25T01:51:04.264Z,57
2019-04-25T01:52:04.308Z,58
2019-04-25T01:53:04.362Z,58
2019-04-25T01:54:04.428Z,58
2019-04-25T01:55:05.530Z,58
2019-04-25T01:56:07.559Z,58
2019-04-25T01:57:04.576Z,58
2019-04-25T01:58:04.584Z,59
2019-04-25T01:59:04.647Z,59
2019-04-25T02:00:04.657Z,58
2019-04-25T02:01:04.707Z,59
2019-04-25T02:02:06.651Z,59
2019-04-25T02:03:04.742Z,59
2019-04-25T02:04:04.763Z,59
2019-04-25T02:05:05.147Z,60
2019-04-25T02:06:05.086Z,60
2019-04-25T02:07:04.882Z,59
2019-04-25T02:08:06.867Z,61
2019-04-25T02:09:05.266Z,61
2019-04-25T02:10:05.000Z,61
2019-04-25T02:11:05.056Z,61
2019-04-25T02:12:05.068Z,61
2019-04-25T02:13:05.102Z,61
2019-04-25T02:14:05.280Z,61
2019-04-25T02:15:06.125Z,61
2019-04-25T02:16:05.377Z,62
2019-04-25T02:17:05.277Z,62
2019-04-25T02:18:05.353Z,62
2019-04-25T02:19:05.380Z,62
2019-04-25T02:20:05.376Z,62
2019-04-25T02:21:05.519Z,62
2019-04-25T02:22:05.448Z,62
2019-04-25T02:23:05.527Z,63
2019-04-25T02:24:05.723Z,63
2019-04-25T02:25:05.542Z,63
2019-04-25T02:26:15.125Z,63
2019-04-25T02:27:05.582Z,63
2019-04-25T02:28:05.786Z,63
2019-04-25T02:29:05.637Z,63
2019-04-25T02:30:06.835Z,63
2019-04-25T02:31:08.725Z,63
2019-04-25T02:32:08.892Z,63
2019-04-25T02:33:08.539Z,63
2019-04-25T02:34:08.305Z,64
2019-04-25T02:35:09.242Z,64
2019-04-25T02:36:08.511Z,64
2019-04-25T02:37:09.229Z,64
2019-04-25T02:38:08.729Z,63
2019-04-25T02:39:08.876Z,63
2019-04-25T02:40:07.975Z,64
2019-04-25T02:41:08.455Z,64
2019-04-25T02:42:08.187Z,64
2019-04-25T02:43:07.896Z,63
2019-04-25T02:44:09.513Z,63
2019-04-25T02:45:08.142Z,63
2019-04-25T02:46:07.652Z,63
2019-04-25T02:47:07.909Z,63
2019-04-25T02:48:07.016Z,63
2019-04-25T02:49:08.789Z,64
2019-04-25T02:50:08.365Z,63
2019-04-25T02:51:07.500Z,63
2019-04-25T02:52:07.376Z,64
2019-04-25T02:53:07.350Z,64
2019-04-25T02:54:08.024Z,65
2019-04-25T02:55:10.253Z,65
2019-04-25T02:56:25.956Z,65
2019-04-25T02:57:08.144Z,65
2019-04-25T02:58:09.735Z,65
2019-04-25T02:59:08.511Z,65
2019-04-25T03:00:08.326Z,65
2019-04-25T03:01:16.129Z,65
2019-04-25T03:02:08.531Z,65
2019-04-25T03:03:07.474Z,65
2019-04-25T03:04:09.466Z,64
2019-04-25T03:05:09.500Z,64
2019-04-25T03:06:09.252Z,63
2019-04-25T03:07:07.985Z,63
2019-04-25T03:08:08.765Z,63
2019-04-25T03:09:07.970Z,63
2019-04-25T03:10:09.742Z,63
2019-04-25T03:11:08.003Z,63
2019-04-25T03:12:07.902Z,63
2019-04-25T03:13:10.105Z,63
2019-04-25T03:14:08.617Z,63
2019-04-25T03:15:08.713Z,63
2019-04-25T03:16:09.013Z,64
2019-04-25T03:17:08.597Z,64
2019-04-25T03:18:10.752Z,65
2019-04-25T03:19:07.953Z,65
2019-04-25T03:20:09.500Z,65
2019-04-25T03:21:12.322Z,65
2019-04-25T03:22:09.931Z,65
2019-04-25T03:23:08.694Z,65
2019-04-25T03:24:10.091Z,65
2019-04-25T03:25:11.453Z,64
2019-04-25T03:26:07.485Z,64
2019-04-25T03:27:07.377Z,63
2019-04-25T03:28:07.221Z,63
2019-04-25T03:29:07.296Z,64
2019-04-25T03:30:11.687Z,63
2019-04-25T03:31:12.934Z,63
2019-04-25T03:32:11.696Z,64
2019-04-25T03:33:11.816Z,64
2019-04-25T03:34:11.820Z,64
2019-04-25T03:35:07.525Z,64
2019-04-25T03:36:07.863Z,64
2019-04-25T03:37:07.680Z,64
2019-04-25T03:38:08.390Z,64
2019-04-25T03:39:08.671Z,63
2019-04-25T03:40:07.913Z,63
2019-04-25T03:41:08.628Z,62
2019-04-25T03:42:07.820Z,63
2019-04-25T03:43:07.805Z,63
2019-04-25T03:44:08.018Z,63
2019-04-25T03:45:07.927Z,63
2019-04-25T03:46:08.236Z,63
2019-04-25T03:47:08.646Z,63
2019-04-25T03:48:08.020Z,64
2019-04-25T03:49:08.076Z,63
2019-04-25T03:50:08.209Z,63
2019-04-25T03:51:08.132Z,63
2019-04-25T03:52:08.178Z,63
2019-04-25T03:53:08.236Z,62
2019-04-25T03:54:09.296Z,62
2019-04-25T03:55:08.656Z,62
2019-04-25T03:56:08.626Z,62
2019-04-25T03:57:08.530Z,62
2019-04-25T03:58:10.639Z,61
2019-04-25T03:59:08.525Z,60
2019-04-25T04:00:08.756Z,60
2019-04-25T04:01:09.535Z,60
2019-04-25T04:02:09.094Z,60
2019-04-25T04:03:09.064Z,59
2019-04-25T04:04:09.057Z,59
2019-04-25T04:05:09.570Z,59
2019-04-25T04:06:09.779Z,59
2019-04-25T04:07:10.782Z,59
2019-04-25T04:08:09.688Z,59
2019-04-25T04:09:09.721Z,59
2019-04-25T04:10:08.886Z,58
2019-04-25T04:11:08.944Z,58
2019-04-25T04:12:08.954Z,58
2019-04-25T04:13:08.995Z,58
2019-04-25T04:14:09.037Z,58
2019-04-25T04:15:09.085Z,58
2019-04-25T04:16:09.119Z,58
2019-04-25T04:17:09.145Z,57
2019-04-25T04:18:09.156Z,57
2019-04-25T04:19:09.178Z,57
2019-04-25T04:20:09.184Z,57
2019-04-25T04:21:09.199Z,56
2019-04-25T04:22:09.209Z,56
2019-04-25T04:23:09.263Z,55
2019-04-25T04:26:09.528Z,56
2019-04-25T04:27:10.613Z,56
2019-04-25T04:28:09.745Z,55
2019-04-25T04:29:10.076Z,55
2019-04-25T04:30:10.049Z,56
2019-04-25T04:31:10.209Z,56
2019-04-25T04:32:10.468Z,56
2019-04-25T04:33:21.389Z,56
2019-04-25T04:34:09.555Z,57
2019-04-25T04:35:09.583Z,57
2019-04-25T04:36:09.600Z,57
2019-04-25T04:37:09.599Z,57
2019-04-25T04:38:09.666Z,57
2019-04-25T04:39:09.955Z,58
2019-04-25T04:40:09.683Z,58
2019-04-25T04:41:09.759Z,58
2019-04-25T04:42:09.687Z,58
2019-04-25T04:43:09.716Z,59
2019-04-25T04:44:10.008Z,58
2019-04-25T04:45:10.155Z,58
2019-04-25T04:47:09.983Z,59
2019-04-25T04:48:10.226Z,59
2019-04-25T04:49:10.228Z,59
2019-04-25T04:50:10.576Z,59
2019-04-25T04:51:10.536Z,59
2019-04-25T04:52:10.528Z,59
2019-04-25T04:53:10.924Z,58
2019-04-25T04:54:09.862Z,58
2019-04-25T04:55:11.546Z,59
2019-04-25T04:56:09.873Z,58
2019-04-25T04:57:19.607Z,58
2019-04-25T04:58:10.365Z,59
2019-04-25T04:59:10.803Z,59
2019-04-25T05:00:10.241Z,59
2019-04-25T05:01:10.209Z,59
2019-04-25T05:02:10.625Z,59
2019-04-25T05:03:10.342Z,59
2019-04-25T05:04:10.593Z,59
2019-04-25T05:05:10.594Z,59
2019-04-25T05:06:10.915Z,59
2019-04-25T05:07:11.004Z,59
2019-04-25T05:08:11.033Z,59
2019-04-25T05:09:11.836Z,59
2019-04-25T05:10:10.437Z,60
2019-04-25T05:11:10.384Z,60
2019-04-25T05:12:10.691Z,60
2019-04-25T05:13:11.363Z,60
2019-04-25T05:14:11.033Z,61
2019-04-25T05:15:10.474Z,61
2019-04-25T05:16:11.141Z,61
2019-04-25T05:17:11.327Z,60
2019-04-25T05:18:11.495Z,61
2019-04-25T05:19:11.511Z,62
2019-04-25T05:20:10.698Z,61
2019-04-25T05:21:10.677Z,61
2019-04-25T05:22:10.748Z,61
2019-04-25T05:23:10.867Z,60
2019-04-25T05:24:10.828Z,61
2019-04-25T05:25:10.939Z,60
2019-04-25T05:26:10.939Z,60
2019-04-25T05:27:11.003Z,60
2019-04-25T05:28:10.998Z,60
2019-04-25T05:29:11.051Z,61
2019-04-25T05:30:11.104Z,61
2019-04-25T05:31:11.155Z,61
2019-04-25T05:32:11.254Z,60
2019-04-25T05:33:11.264Z,60
2019-04-25T05:34:11.301Z,60
2019-04-25T05:35:11.351Z,59
2019-04-25T05:36:11.400Z,59
2019-04-25T05:37:11.453Z,59
2019-04-25T05:38:13.164Z,59
2019-04-25T05:39:11.534Z,58
2019-04-25T05:40:11.583Z,58
2019-04-25T05:41:11.617Z,58
2019-04-25T05:42:11.711Z,58
2019-04-25T05:43:13.214Z,58
2019-04-25T05:44:11.770Z,58
2019-04-25T05:45:13.009Z,57
2019-04-25T05:46:13.192Z,57
2019-04-25T05:47:11.808Z,58
2019-04-25T05:48:11.816Z,57
2019-04-25T05:49:11.874Z,57
2019-04-25T05:50:11.888Z,57
2019-04-25T05:51:13.234Z,57
2019-04-25T05:52:11.923Z,57
2019-04-25T05:53:11.972Z,56
2019-04-25T05:54:11.987Z,57
2019-04-25T05:55:14.238Z,57
2019-04-25T05:56:14.548Z,56
2019-04-25T05:57:13.340Z,56
2019-04-25T05:58:13.438Z,54
2019-04-25T05:59:13.405Z,55
2019-04-25T06:00:13.396Z,56
2019-04-25T06:01:13.373Z,54
2019-04-25T06:02:13.857Z,55
2019-04-25T06:03:13.676Z,55
2019-04-25T06:04:13.900Z,54
2019-04-25T06:05:13.167Z,54
2019-04-25T06:06:13.397Z,54
2019-04-25T06:07:12.397Z,55
2019-04-25T06:08:13.946Z,54
2019-04-25T06:09:13.995Z,54
2019-04-25T06:10:14.258Z,53
2019-04-25T06:11:13.529Z,54
2019-04-25T06:12:13.430Z,54
2019-04-25T06:13:13.750Z,53
2019-04-25T06:14:13.497Z,54
2019-04-25T06:15:13.190Z,55
2019-04-25T06:16:13.348Z,53
2019-04-25T06:17:13.681Z,51
2019-04-25T06:18:13.976Z,53
2019-04-25T06:19:16.349Z,54
2019-04-25T06:20:13.409Z,51
2019-04-25T06:21:13.268Z,50
2019-04-25T06:22:13.056Z,52
2019-04-25T06:23:15.216Z,53
2019-04-25T06:24:13.272Z,53
2019-04-25T06:25:16.017Z,52
2019-04-25T06:26:20.507Z,50
2019-04-25T06:27:13.911Z,51
2019-04-25T06:28:13.708Z,51
2019-04-25T06:29:13.377Z,49
2019-04-25T06:30:13.953Z,49
2019-04-25T06:31:13.744Z,48
2019-04-25T06:32:14.200Z,48
2019-04-25T06:33:13.315Z,50
2019-04-25T06:34:14.051Z,49
2019-04-25T06:35:14.286Z,48
2019-04-25T06:36:13.950Z,47
2019-04-25T06:37:13.839Z,44
2019-04-25T06:38:13.313Z,44
2019-04-25T06:39:14.167Z,44
2019-04-25T06:40:13.666Z,44
2019-04-25T06:41:13.459Z,43
2019-04-25T06:42:13.802Z,45
2019-04-25T06:43:13.395Z,46
2019-04-25T06:44:13.665Z,42
2019-04-25T06:45:13.492Z,44
2019-04-25T06:46:14.030Z,43
2019-04-25T06:47:15.072Z,41
2019-04-25T06:48:13.963Z,41
2019-04-25T06:49:13.465Z,41
2019-04-25T06:50:45.430Z,38
2019-04-25T06:51:13.478Z,38
2019-04-25T06:52:13.889Z,38
2019-04-25T06:53:13.680Z,39
2019-04-25T06:54:13.555Z,41
2019-04-25T06:55:14.068Z,43
2019-04-25T06:56:13.781Z,37
2019-04-25T06:57:14.095Z,38
2019-04-25T06:58:14.506Z,40
2019-04-25T06:59:13.787Z,38
2019-04-25T07:00:14.132Z,34
2019-04-25T07:01:13.888Z,33
2019-04-25T07:02:14.096Z,34
2019-04-25T07:03:14.254Z,37
2019-04-25T07:04:14.108Z,34
2019-04-25T07:05:25.769Z,34
2019-04-25T07:06:14.706Z,34
2019-04-25T07:07:14.896Z,33
2019-04-25T07:08:14.123Z,34
2019-04-25T07:09:14.588Z,33
2019-04-25T07:10:14.223Z,36
2019-04-25T07:11:14.300Z,35
2019-04-25T07:12:14.352Z,35
2019-04-25T07:13:14.395Z,37
2019-04-25T07:14:14.437Z,38
2019-04-25T07:15:14.502Z,36
2019-04-25T07:16:14.483Z,34
2019-04-25T07:17:14.516Z,37
2019-04-25T07:18:14.605Z,35
2019-04-25T07:19:17.353Z,32
2019-04-25T07:20:14.602Z,35
2019-04-25T07:21:14.668Z,31
2019-04-25T07:22:15.442Z,29
2019-04-25T07:23:14.718Z,28
2019-04-25T07:24:17.408Z,28
2019-04-25T07:25:14.736Z,28
2019-04-25T07:26:14.746Z,32
2019-04-25T07:27:14.803Z,31
2019-04-25T07:28:23.504Z,30
2019-04-25T07:29:14.831Z,29
2019-04-25T07:30:26.831Z,29
2019-04-25T07:31:14.963Z,33
2019-04-25T07:32:14.971Z,33
2019-04-25T07:33:15.007Z,33
2019-04-25T07:34:15.041Z,32
2019-04-25T07:35:15.076Z,29
2019-04-25T07:36:15.590Z,28
2019-04-25T07:37:15.164Z,30
2019-04-25T07:38:15.305Z,32
2019-04-25T07:39:15.242Z,25
2019-04-25T07:40:15.256Z,26
2019-04-25T07:41:16.339Z,26
2019-04-25T07:42:15.327Z,27
2019-04-25T07:43:15.368Z,28
2019-04-25T07:44:15.427Z,29
2019-04-25T07:45:15.517Z,27
2019-04-25T07:46:15.687Z,26
2019-04-25T07:47:15.864Z,26
2019-04-25T07:48:15.518Z,25
2019-04-25T07:49:15.554Z,25
2019-04-25T07:50:15.527Z,24
2019-04-25T07:51:16.482Z,24
2019-04-25T07:52:15.611Z,24
2019-04-25T07:53:15.624Z,27
2019-04-25T07:54:15.648Z,26
2019-04-25T07:55:15.689Z,27
2019-04-25T07:56:15.714Z,26
2019-04-25T07:57:15.811Z,26
2019-04-25T07:58:15.818Z,26
2019-04-25T07:59:15.798Z,25
2019-04-25T08:00:15.813Z,26
2019-04-25T08:01:15.923Z,25
2019-04-25T08:02:15.858Z,26
2019-04-25T08:03:15.875Z,27
2019-04-25T08:04:15.891Z,27
2019-04-25T08:05:15.951Z,24
2019-04-25T08:06:15.966Z,26
2019-04-25T08:07:15.968Z,24
2019-04-25T08:08:15.979Z,25
2019-04-25T08:09:15.986Z,23
2019-04-25T08:10:15.985Z,23
2019-04-25T08:11:15.986Z,22
2019-04-25T08:12:16.008Z,24
2019-04-25T08:13:16.022Z,25
2019-04-25T08:14:16.032Z,24
2019-04-25T08:15:16.044Z,26
2019-04-25T08:16:16.070Z,26
2019-04-25T08:17:16.066Z,24
2019-04-25T08:18:16.058Z,25
2019-04-25T08:19:18.082Z,25
2019-04-25T08:20:16.076Z,23
2019-04-25T08:21:16.087Z,24
2019-04-25T08:22:16.078Z,25
2019-04-25T08:23:16.080Z,25
2019-04-25T08:24:16.083Z,24
2019-04-25T08:25:16.110Z,24
2019-04-25T08:26:16.104Z,23
2019-04-25T08:27:16.118Z,24
2019-04-25T08:28:16.119Z,24
2019-04-25T08:29:16.133Z,25
2019-04-25T08:30:16.101Z,23
2019-04-25T08:31:16.220Z,22
2019-04-25T08:32:16.255Z,22
2019-04-25T08:33:16.336Z,22
2019-04-25T08:34:16.418Z,21
2019-04-25T08:35:16.541Z,21
2019-04-25T08:36:16.492Z,21
2019-04-25T08:37:18.628Z,22
2019-04-25T08:38:16.582Z,22
2019-04-25T08:39:16.627Z,22
2019-04-25T08:40:16.695Z,22
2019-04-25T08:41:16.685Z,21
2019-04-25T08:42:16.742Z,22
2019-04-25T08:43:16.782Z,22
2019-04-25T08:44:16.870Z,23
2019-04-25T08:45:16.912Z,24
2019-04-25T08:46:16.972Z,23
2019-04-25T08:47:17.005Z,23
2019-04-25T08:48:17.080Z,21
2019-04-25T08:49:17.130Z,22
2019-04-25T08:50:26.641Z,22
2019-04-25T08:51:17.459Z,23
2019-04-25T08:52:17.277Z,23
2019-04-25T08:53:17.368Z,23
2019-04-25T08:54:17.419Z,22
2019-04-25T08:55:17.489Z,21
2019-04-25T08:56:18.532Z,22
2019-04-25T08:57:17.587Z,22
2019-04-25T08:58:17.733Z,21
2019-04-25T08:59:17.701Z,23
2019-04-25T09:00:17.758Z,23
2019-04-25T09:01:17.800Z,22
2019-04-25T09:02:17.829Z,23
2019-04-25T09:03:17.861Z,23
2019-04-25T09:04:17.892Z,23
2019-04-25T09:05:18.020Z,25
2019-04-25T09:06:17.994Z,24
2019-04-25T09:07:18.051Z,21
2019-04-25T09:08:18.119Z,22
2019-04-25T09:09:18.140Z,21
2019-04-25T09:10:18.255Z,20
2019-04-25T09:11:18.265Z,21
2019-04-25T09:12:18.275Z,20
2019-04-25T09:13:18.315Z,19
2019-04-25T09:14:18.371Z,19
2019-04-25T09:15:18.408Z,20
2019-04-25T09:16:18.467Z,19
2019-04-25T09:17:18.491Z,19
2019-04-25T09:18:18.532Z,19
2019-04-25T09:19:18.570Z,18
2019-04-25T09:20:18.620Z,19
2019-04-25T09:21:18.643Z,19
2019-04-25T09:22:18.687Z,20
2019-04-25T09:23:18.723Z,19
2019-04-25T09:24:18.799Z,21
2019-04-25T09:25:18.815Z,20
2019-04-25T09:26:18.810Z,21
2019-04-25T09:27:18.860Z,20
2019-04-25T09:28:18.880Z,19
2019-04-25T09:29:19.830Z,19
2019-04-25T09:30:18.921Z,19
2019-04-25T09:31:18.951Z,20
2019-04-25T09:32:21.429Z,19
2019-04-25T09:33:19.025Z,19
2019-04-25T09:34:19.010Z,19
2019-04-25T09:35:20.210Z,20
2019-04-25T09:36:19.050Z,21
2019-04-25T09:37:19.098Z,20
2019-04-25T09:38:19.115Z,19
2019-04-25T09:39:19.128Z,19
2019-04-25T09:40:19.187Z,19
2019-04-25T09:41:19.194Z,19
2019-04-25T09:42:19.230Z,19
2019-04-25T09:43:19.255Z,19
2019-04-25T09:44:19.244Z,20
2019-04-25T09:45:19.248Z,19
2019-04-25T09:46:19.283Z,20
2019-04-25T09:47:19.283Z,19
2019-04-25T09:48:19.283Z,18
2019-04-25T09:49:19.361Z,19
2019-04-25T09:50:19.326Z,19
2019-04-25T09:51:19.337Z,19
2019-04-25T09:52:19.374Z,19
2019-04-25T09:53:23.056Z,19
2019-04-25T09:54:19.367Z,20
2019-04-25T09:55:19.368Z,20
2019-04-25T09:56:19.369Z,19
2019-04-25T09:57:19.376Z,20
2019-04-25T09:58:19.422Z,20
2019-04-25T09:59:27.042Z,21
2019-04-25T10:00:19.488Z,19
2019-04-25T10:01:19.419Z,18
2019-04-25T10:02:19.423Z,17
2019-04-25T10:03:19.450Z,20
2019-04-25T10:04:19.455Z,19
2019-04-25T10:05:19.440Z,19
2019-04-25T10:06:19.450Z,17
2019-04-25T10:07:19.469Z,17
2019-04-25T10:08:19.440Z,19
2019-04-25T10:09:19.483Z,18
2019-04-25T10:10:19.534Z,18
2019-04-25T10:11:19.586Z,18
2019-04-25T10:12:19.604Z,17
2019-04-25T10:13:19.622Z,16
2019-04-25T10:14:19.644Z,17
2019-04-25T10:15:19.689Z,17
2019-04-25T10:16:19.752Z,17
2019-04-25T10:17:19.793Z,17
2019-04-25T10:18:19.868Z,16
2019-04-25T10:19:19.891Z,17
2019-04-25T10:20:19.977Z,16
2019-04-25T10:21:20.021Z,18
2019-04-25T10:22:20.077Z,17
2019-04-25T10:23:20.129Z,16
2019-04-25T10:24:20.178Z,16
2019-04-25T10:25:20.242Z,16
2019-04-25T10:26:20.286Z,16
2019-04-25T10:27:20.389Z,16
2019-04-25T10:28:20.413Z,15
2019-04-25T10:29:20.505Z,16
2019-04-25T10:30:23.460Z,16
2019-04-25T10:31:20.817Z,16
2019-04-25T10:32:20.543Z,16
2019-04-25T10:33:20.601Z,17
2019-04-25T10:34:20.591Z,17
2019-04-25T10:35:20.667Z,17
2019-04-25T10:36:20.734Z,16
2019-04-25T10:37:20.933Z,15
2019-04-25T10:38:20.887Z,15
2019-04-25T10:39:20.917Z,16
2019-04-25T10:40:20.883Z,16
2019-04-25T10:41:20.875Z,16
2019-04-25T10:42:20.901Z,15
2019-04-25T10:43:21.712Z,15
2019-04-25T10:44:21.019Z,15
2019-04-25T10:45:23.622Z,16
2019-04-25T10:46:21.055Z,15
2019-04-25T10:47:21.026Z,15
2019-04-25T10:48:21.090Z,16
2019-04-25T10:49:21.154Z,17
2019-04-25T10:50:21.197Z,16
2019-04-25T10:51:21.216Z,15
2019-04-25T10:52:21.280Z,16
2019-04-25T10:53:21.341Z,17
2019-04-25T10:54:21.393Z,17
2019-04-25T10:55:21.410Z,16
2019-04-25T10:56:21.486Z,16
2019-04-25T10:57:21.505Z,16
2019-04-25T10:58:21.554Z,16
2019-04-25T10:59:23.401Z,17
2019-04-25T11:00:21.656Z,17
2019-04-25T11:01:24.592Z,17
2019-04-25T11:02:23.464Z,17
2019-04-25T11:03:21.714Z,18
2019-04-25T11:04:21.785Z,18
2019-04-25T11:05:21.770Z,18
2019-04-25T11:06:23.286Z,17
2019-04-25T11:07:23.287Z,18
2019-04-25T11:08:21.919Z,18
2019-04-25T11:09:21.907Z,18
2019-04-25T11:10:23.474Z,18
2019-04-25T11:11:21.964Z,18
2019-04-25T11:12:23.464Z,18
2019-04-25T11:13:22.036Z,17
2019-04-25T11:14:23.712Z,16
2019-04-25T11:15:23.361Z,16
2019-04-25T11:16:22.150Z,16
2019-04-25T11:17:24.089Z,16
2019-04-25T11:18:23.800Z,17
2019-04-25T11:19:23.694Z,18
2019-04-25T11:20:23.176Z,18
2019-04-25T11:21:22.290Z,18
2019-04-25T11:22:23.880Z,17
2019-04-25T11:23:22.263Z,17
2019-04-25T11:24:23.639Z,16
2019-04-25T11:25:24.001Z,16
2019-04-25T11:26:22.331Z,17
2019-04-25T11:27:23.845Z,17
2019-04-25T11:28:23.417Z,17
2019-04-25T11:29:23.984Z,17
2019-04-25T11:30:22.440Z,16
2019-04-25T11:31:23.485Z,16
2019-04-25T11:32:23.779Z,16
2019-04-25T11:33:22.938Z,16
2019-04-25T11:34:22.807Z,15
2019-04-25T11:35:24.772Z,15
2019-04-25T11:36:22.534Z,15
2019-04-25T11:37:23.841Z,14
2019-04-25T11:38:23.726Z,15
2019-04-25T11:39:23.900Z,15
2019-04-25T11:40:23.393Z,14
2019-04-25T11:41:24.089Z,15
2019-04-25T11:42:23.289Z,15
2019-04-25T11:43:22.682Z,15
2019-04-25T11:44:24.388Z,15
2019-04-25T11:45:22.688Z,17
2019-04-25T11:46:24.137Z,16
2019-04-25T11:47:24.117Z,16
2019-04-25T11:48:23.809Z,16
2019-04-25T11:49:23.817Z,17
2019-04-25T11:50:22.735Z,16
2019-04-25T11:51:23.975Z,17
2019-04-25T11:52:27.950Z,16
2019-04-25T11:53:24.708Z,16
2019-04-25T11:54:24.248Z,16
2019-04-25T11:55:23.869Z,16
2019-04-25T11:56:24.101Z,17
2019-04-25T11:57:23.283Z,17
2019-04-25T11:58:23.534Z,16
2019-04-25T11:59:23.492Z,17
2019-04-25T12:00:24.414Z,16
2019-04-25T12:01:24.171Z,16
2019-04-25T12:02:23.938Z,17
2019-04-25T12:03:22.963Z,16
2019-04-25T12:04:23.900Z,17
2019-04-25T12:05:23.465Z,16
2019-04-25T12:06:24.281Z,16
2019-04-25T12:07:23.660Z,16
2019-04-25T12:08:24.260Z,16
2019-04-25T12:09:24.071Z,17
2019-04-25T12:10:24.213Z,17
2019-04-25T12:11:23.623Z,17
2019-04-25T12:12:23.567Z,18
2019-04-25T12:13:24.233Z,16
2019-04-25T12:14:23.495Z,16
2019-04-25T12:15:24.067Z,17
2019-04-25T12:16:24.612Z,17
2019-04-25T12:17:23.543Z,16
2019-04-25T12:18:23.533Z,17
2019-04-25T12:19:34.474Z,17
2019-04-25T12:20:23.623Z,17
2019-04-25T12:21:23.988Z,17
2019-04-25T12:22:23.888Z,17
2019-04-25T12:23:23.902Z,16
2019-04-25T12:24:23.993Z,18
2019-04-25T12:25:23.910Z,17
2019-04-25T12:26:26.124Z,17
2019-04-25T12:27:24.019Z,18
2019-04-25T12:28:24.111Z,18
2019-04-25T12:29:24.447Z,18
2019-04-25T12:30:36.344Z,19
2019-04-25T12:31:24.264Z,16
2019-04-25T12:32:24.280Z,17
2019-04-25T12:33:24.298Z,17
2019-04-25T12:34:24.387Z,18
2019-04-25T12:35:24.415Z,18
2019-04-25T12:36:24.501Z,18
2019-04-25T12:37:25.013Z,18
2019-04-25T12:38:24.650Z,17
2019-04-25T12:39:24.548Z,18
2019-04-25T12:40:24.634Z,18
2019-04-25T12:41:24.710Z,19
2019-04-25T12:42:24.707Z,18
2019-04-25T12:43:24.797Z,18
2019-04-25T12:44:24.790Z,18
2019-04-25T12:45:24.860Z,18
2019-04-25T12:46:24.910Z,17
2019-04-25T12:47:24.960Z,17
2019-04-25T12:48:24.979Z,18
2019-04-25T12:49:25.292Z,18
2019-04-25T12:50:25.068Z,18
2019-04-25T12:51:25.344Z,18
2019-04-25T12:52:25.253Z,18
2019-04-25T12:53:25.208Z,18
2019-04-25T12:54:25.400Z,18
2019-04-25T12:55:25.261Z,18
2019-04-25T12:56:25.297Z,19
2019-04-25T12:57:25.597Z,17
2019-04-25T12:58:25.611Z,18
2019-04-25T12:59:25.527Z,19
2019-04-25T13:00:25.699Z,18
2019-04-25T13:01:25.686Z,17
2019-04-25T13:02:25.519Z,18
2019-04-25T13:03:25.614Z,19
2019-04-25T13:04:25.609Z,18
2019-04-25T13:05:25.896Z,18
2019-04-25T13:06:25.727Z,18
2019-04-25T13:07:25.899Z,17
2019-04-25T13:08:25.840Z,18
2019-04-25T13:09:26.000Z,18
2019-04-25T13:10:25.823Z,17
2019-04-25T13:11:26.119Z,17
2019-04-25T13:12:25.885Z,17
2019-04-25T13:13:26.103Z,17
2019-04-25T13:14:25.971Z,17
2019-04-25T13:15:26.979Z,17
2019-04-25T13:16:26.084Z,18
2019-04-25T13:17:28.305Z,18
2019-04-25T13:18:26.172Z,17
2019-04-25T13:19:26.547Z,17
2019-04-25T13:20:26.243Z,17
2019-04-25T13:21:26.200Z,18
2019-04-25T13:22:26.214Z,18
2019-04-25T13:23:26.236Z,18
2019-04-25T13:24:26.495Z,19
2019-04-25T13:26:26.297Z,18
2019-04-25T13:26:31.329Z,18
2019-04-25T13:27:26.369Z,18
2019-04-25T13:28:26.419Z,18
2019-04-25T13:29:26.677Z,19
2019-04-25T13:30:26.712Z,18
2019-04-25T13:31:26.624Z,18
2019-04-25T13:32:26.712Z,18
2019-04-25T13:33:26.468Z,18
2019-04-25T13:34:35.890Z,18
2019-04-25T13:35:26.796Z,18
2019-04-25T13:36:26.529Z,18
2019-04-25T13:37:26.774Z,19
2019-04-25T13:38:26.591Z,19
2019-04-25T13:39:26.826Z,19
2019-04-25T13:40:26.597Z,19
2019-04-25T13:41:26.873Z,18
2019-04-25T13:42:26.890Z,19
2019-04-25T13:43:26.782Z,19
2019-04-25T13:44:26.916Z,18
2019-04-25T13:45:26.904Z,19
2019-04-25T13:46:27.650Z,19
2019-04-25T13:47:29.024Z,18
2019-04-25T13:48:27.789Z,19
2019-04-25T13:49:27.237Z,18
2019-04-25T13:50:27.579Z,19
2019-04-25T13:51:26.959Z,19
2019-04-25T13:52:26.930Z,18
2019-04-25T13:53:27.337Z,19
2019-04-25T13:54:26.671Z,18
2019-04-25T13:55:26.746Z,18
2019-04-25T13:56:27.737Z,18
2019-04-25T13:57:27.844Z,18
2019-04-25T13:58:29.446Z,19
2019-04-25T13:59:26.912Z,18
2019-04-25T14:00:27.733Z,17
2019-04-25T14:01:27.601Z,17
2019-04-25T14:02:27.333Z,17
2019-04-25T14:03:27.406Z,18
2019-04-25T14:04:28.051Z,18
2019-04-25T14:05:28.193Z,18
2019-04-25T14:06:28.345Z,17
2019-04-25T14:07:27.570Z,18
2019-04-25T14:08:27.462Z,18
2019-04-25T14:09:27.537Z,18
2019-04-25T14:10:28.009Z,18
2019-04-25T14:11:27.986Z,18
2019-04-25T14:12:28.899Z,19
2019-04-25T14:13:27.887Z,20
2019-04-25T14:14:27.709Z,20
2019-04-25T14:15:27.897Z,19
2019-04-25T14:16:28.169Z,19
2019-04-25T14:17:28.043Z,19
2019-04-25T14:18:28.811Z,19